Time;durP1;ratioP1;P1;durP2;ratioP2;P2;SDS_P1;SDS_P2;PMS_P1;PMS_P2;Temp;Humidity;BMP_temperature;BMP_pressure;BME280_temperature;BME280_humidity;BME280_pressure;Samples;Min_cycle;Max_cycle;Signal;HPM_P1;HPM_P2
2022/02/25 00:00:20;;;;;;;15.10;5.37;;;;;;;-1.53;59.01;99771.31;5047911;28;20413;-69
2022/02/25 00:02:46;;;;;;;11.83;4.70;;;;;;;-1.50;58.98;99777.09;5048219;28;20114;-68
2022/02/25 00:05:12;;;;;;;19.50;5.13;;;;;;;-1.65;59.48;99771.00;5049304;28;20053;-69
2022/02/25 00:07:38;;;;;;;11.57;4.47;;;;;;;-1.57;59.17;99779.72;5047670;28;20099;-70
2022/02/25 00:10:07;;;;;;;13.80;4.80;;;;;;;-1.61;59.42;99769.63;5048268;28;20136;-69
2022/02/25 00:12:33;;;;;;;14.07;4.67;;;;;;;-1.54;59.19;99769.66;5049271;28;20051;-70
2022/02/25 00:15:00;;;;;;;14.43;5.17;;;;;;;-1.51;58.99;99775.44;5062983;28;20064;-70
2022/02/25 00:17:26;;;;;;;17.53;5.13;;;;;;;-1.55;59.43;99773.38;5026320;28;20045;-71
2022/02/25 00:19:53;;;;;;;11.20;4.33;;;;;;;-1.65;59.53;99760.28;5036333;28;20491;-70
2022/02/25 00:22:19;;;;;;;13.80;4.93;;;;;;;-1.60;59.59;99763.22;5048016;28;20140;-71
2022/02/25 00:24:45;;;;;;;12.17;5.10;;;;;;;-1.55;59.50;99759.97;5046205;28;20131;-71
2022/02/25 00:27:12;;;;;;;13.17;4.63;;;;;;;-1.63;59.52;99751.03;5049216;28;20114;-70
2022/02/25 00:29:38;;;;;;;11.20;4.70;;;;;;;-1.57;59.37;99754.78;5059838;28;20052;-70
2022/02/25 00:32:05;;;;;;;12.40;4.27;;;;;;;-1.59;59.71;99752.28;5028007;28;20076;-70
2022/02/25 00:34:31;;;;;;;10.63;4.50;;;;;;;-1.63;59.70;99750.22;5047464;28;20045;-70
2022/02/25 00:36:57;;;;;;;12.53;4.63;;;;;;;-1.69;60.01;99756.34;5029451;28;20052;-71
2022/02/25 00:39:24;;;;;;;13.27;4.70;;;;;;;-1.69;60.00;99750.97;5049614;28;20430;-71
2022/02/25 00:41:50;;;;;;;16.13;4.77;;;;;;;-1.73;60.22;99755.88;5046614;28;20156;-71
2022/02/25 00:44:17;;;;;;;13.07;5.03;;;;;;;-1.71;60.07;99746.63;5046070;28;20150;-71
2022/02/25 00:46:42;;;;;;;17.20;5.03;;;;;;;-1.72;60.28;99749.50;5049413;28;20059;-70
2022/02/25 00:49:09;;;;;;;15.03;5.30;;;;;;;-1.69;60.20;99743.78;5049141;28;20053;-70
2022/02/25 00:51:35;;;;;;;11.57;4.90;;;;;;;-1.69;60.12;99741.09;5048416;28;20098;-69
2022/02/25 00:54:01;;;;;;;12.20;4.70;;;;;;;-1.71;60.21;99743.16;5045415;28;20061;-68
2022/02/25 00:56:27;;;;;;;15.03;5.30;;;;;;;-1.71;60.38;99740.47;5062333;28;20520;-69
2022/02/25 00:58:54;;;;;;;16.80;5.97;;;;;;;-1.76;60.36;99749.09;5031815;28;20045;-70
2022/02/25 01:01:20;;;;;;;14.10;6.23;;;;;;;-1.76;60.46;99738.38;5061715;28;20607;-69
2022/02/25 01:03:46;;;;;;;14.90;6.53;;;;;;;-1.76;60.35;99738.38;5048110;28;20127;-70
2022/02/25 01:06:13;;;;;;;13.73;5.40;;;;;;;-1.77;60.47;99730.50;5047797;28;20065;-69
2022/02/25 01:08:39;;;;;;;13.60;6.00;;;;;;;-1.84;60.58;99730.44;5051198;28;20143;-69
2022/02/25 01:11:05;;;;;;;16.67;6.40;;;;;;;-1.84;60.86;99738.50;5065380;28;20212;-70
2022/02/25 01:13:31;;;;;;;13.73;5.83;;;;;;;-1.81;60.88;99740.78;5050998;28;20065;-70
2022/02/25 01:15:57;;;;;;;13.07;5.20;;;;;;;-1.81;60.92;99734.59;5052749;28;20057;-70
2022/02/25 01:18:24;;;;;;;11.33;4.83;;;;;;;-1.94;60.82;99708.53;5051987;28;20649;-70
2022/02/25 01:20:50;;;;;;;17.17;5.23;;;;;;;-1.87;61.04;99739.72;5050740;28;20102;-69
2022/02/25 01:23:17;;;;;;;12.07;5.20;;;;;;;-1.84;61.01;99737.69;5052037;28;20321;-69
2022/02/25 01:25:43;;;;;;;10.87;5.00;;;;;;;-1.87;61.16;99736.22;5033948;28;20053;-70
2022/02/25 01:28:09;;;;;;;12.90;5.07;;;;;;;-1.92;61.18;99726.06;5051617;28;20045;-70
2022/02/25 01:30:35;;;;;;;11.20;4.70;;;;;;;-1.83;61.09;99726.75;5048765;28;20052;-71
2022/02/25 01:33:02;;;;;;;15.73;5.53;;;;;;;-1.83;61.21;99731.28;5050146;28;20071;-70
2022/02/25 01:35:29;;;;;;;13.07;4.87;;;;;;;-1.78;61.10;99734.22;5050659;28;20076;-70
2022/02/25 01:37:55;;;;;;;11.65;4.25;;;;;;;-1.83;61.22;99729.44;5033197;28;20057;-70
2022/02/25 01:40:22;;;;;;;12.23;4.77;;;;;;;-1.88;61.44;99719.28;5051407;28;20111;-70
2022/02/25 01:42:50;;;;;;;13.27;5.57;;;;;;;-1.84;61.50;99729.63;5051327;28;20053;-70
2022/02/25 01:45:18;;;;;;;11.97;4.70;;;;;;;-1.89;61.71;99735.56;5050691;28;20049;-70
2022/02/25 01:47:44;;;;;;;12.68;4.80;;;;;;;-1.93;61.84;99729.78;5049281;28;20060;-70
2022/02/25 01:50:10;;;;;;;11.47;4.97;;;;;;;-1.94;61.80;99740.69;5032935;28;20053;-70
2022/02/25 01:52:39;;;;;;;11.30;5.07;;;;;;;-1.94;61.83;99741.50;5017194;28;20049;-70
2022/02/25 01:55:07;;;;;;;11.83;5.03;;;;;;;-1.97;62.31;99743.75;5051157;28;20498;-69
2022/02/25 01:57:33;;;;;;;17.30;5.40;;;;;;;-1.98;62.15;99734.06;5049351;28;20076;-69
2022/02/25 01:59:59;;;;;;;12.50;5.27;;;;;;;-2.02;62.29;99739.00;5049982;28;20114;-69
2022/02/25 02:02:27;;;;;;;12.70;4.97;;;;;;;-2.09;62.70;99748.81;5052228;28;20037;-69
2022/02/25 02:04:53;;;;;;;10.10;4.63;;;;;;;-2.11;62.91;99750.84;5067822;28;20045;-70
2022/02/25 02:07:19;;;;;;;13.03;4.83;;;;;;;-2.06;62.72;99741.22;5044234;28;20114;-70
2022/02/25 02:09:46;;;;;;;12.80;5.13;;;;;;;-2.05;62.60;99740.19;5051181;28;20045;-70
2022/02/25 02:12:12;;;;;;;11.70;4.50;;;;;;;-2.03;62.58;99732.78;5050683;28;20087;-71
2022/02/25 02:14:38;;;;;;;13.60;5.03;;;;;;;-2.03;62.81;99731.94;5050049;28;20211;-71
2022/02/25 02:17:05;;;;;;;11.33;5.03;;;;;;;-2.00;62.71;99737.75;5033825;28;20052;-70
2022/02/25 02:19:31;;;;;;;13.87;5.13;;;;;;;-2.01;62.89;99740.66;5049460;28;20418;-70
2022/02/25 02:21:58;;;;;;;14.93;5.10;;;;;;;-1.97;62.80;99733.03;5050268;28;20091;-70
2022/02/25 02:24:25;;;;;;;11.87;4.80;;;;;;;-1.95;62.75;99741.69;5037070;28;20057;-70
2022/02/25 02:26:53;;;;;;;15.50;5.15;;;;;;;-1.96;62.65;99740.03;5051644;28;20052;-70
2022/02/25 02:29:20;;;;;;;12.33;5.23;;;;;;;-1.98;62.85;99742.09;5048981;28;20053;-69
2022/02/25 02:31:46;;;;;;;11.88;5.03;;;;;;;-1.94;62.53;99741.50;5033161;28;20080;-70
2022/02/25 02:34:14;;;;;;;13.70;5.10;;;;;;;-1.92;62.84;99742.16;5050186;28;20052;-69
2022/02/25 02:36:41;;;;;;;12.93;5.73;;;;;;;-1.92;62.72;99739.47;5052245;28;20057;-69
2022/02/25 02:39:08;;;;;;;14.20;5.13;;;;;;;-1.94;62.97;99733.47;5051263;28;20526;-70
2022/02/25 02:41:34;;;;;;;15.55;5.93;;;;;;;-1.97;63.01;99725.81;5046081;28;20061;-69
2022/02/25 02:44:00;;;;;;;13.57;6.00;;;;;;;-2.04;63.08;99725.78;5041027;28;20128;-70
2022/02/25 02:46:26;;;;;;;12.83;6.10;;;;;;;-1.95;62.90;99728.28;5049555;28;20076;-71
2022/02/25 02:48:52;;;;;;;15.27;5.57;;;;;;;-1.95;62.93;99733.66;5049855;28;20579;-70
2022/02/25 02:51:18;;;;;;;12.27;5.33;;;;;;;-1.97;62.95;99728.50;5047375;28;20394;-70
2022/02/25 02:53:45;;;;;;;13.23;5.53;;;;;;;-1.95;62.96;99722.94;5050178;28;20049;-71
2022/02/25 02:56:11;;;;;;;12.60;5.27;;;;;;;-2.06;63.19;99709.06;5050709;28;20417;-69
2022/02/25 02:58:38;;;;;;;14.97;6.47;;;;;;;-2.04;63.23;99709.69;5048628;28;20064;-70
2022/02/25 03:01:05;;;;;;;13.30;5.32;;;;;;;-2.01;63.15;99711.16;5047148;28;20053;-69
2022/02/25 03:03:32;;;;;;;12.60;5.47;;;;;;;-2.03;63.33;99724.75;5049703;28;20037;-70
2022/02/25 03:05:58;;;;;;;14.47;5.80;;;;;;;-2.03;63.37;99708.66;5050132;28;20068;-70
2022/02/25 03:08:24;;;;;;;14.60;5.77;;;;;;;-2.02;63.37;99712.19;5050610;28;20053;-69
2022/02/25 03:10:51;;;;;;;14.20;6.67;;;;;;;-1.97;63.13;99701.72;5044807;28;20456;-71
2022/02/25 03:13:18;;;;;;;14.38;5.75;;;;;;;-2.06;63.52;99705.53;5048866;28;20053;-72
2022/02/25 03:15:45;;;;;;;13.33;6.60;;;;;;;-2.09;63.58;99711.28;5057094;28;20155;-72
2022/02/25 03:18:13;;;;;;;15.23;7.47;;;;;;;-2.09;63.66;99701.41;5051170;28;20069;-71
2022/02/25 03:20:39;;;;;;;13.95;6.70;;;;;;;-2.17;64.03;99698.88;5046647;28;20134;-72
2022/02/25 03:23:06;;;;;;;14.37;6.53;;;;;;;-2.05;63.64;99699.16;5049489;28;20057;-73
2022/02/25 03:25:32;;;;;;;17.00;7.57;;;;;;;-2.08;63.69;99697.72;5050815;28;20051;-71
2022/02/25 03:27:58;;;;;;;14.57;6.87;;;;;;;-2.08;63.86;99707.59;5047002;28;20428;-72
2022/02/25 03:30:24;;;;;;;15.97;5.97;;;;;;;-2.08;63.77;99705.75;5048067;28;20049;-71
2022/02/25 03:32:51;;;;;;;15.37;6.03;;;;;;;-2.04;63.78;99698.97;5063910;28;20135;-72
2022/02/25 03:35:18;;;;;;;19.10;7.10;;;;;;;-2.04;64.09;99692.78;5050686;28;20052;-71
2022/02/25 03:37:45;;;;;;;14.93;6.15;;;;;;;-2.07;63.96;99702.06;5047924;28;20053;-71
2022/02/25 03:40:12;;;;;;;11.93;5.93;;;;;;;-2.00;63.92;99699.41;5048991;28;20098;-70
2022/02/25 03:42:38;;;;;;;17.45;6.97;;;;;;;-2.06;64.02;99681.44;5047992;28;20080;-76
2022/02/25 03:45:05;;;;;;;14.23;7.33;;;;;;;-2.05;63.99;99686.59;5050179;28;20471;-76
2022/02/25 03:47:32;;;;;;;14.30;6.03;;;;;;;-1.97;63.85;99687.47;5063143;28;20144;-77
2022/02/25 03:49:59;;;;;;;14.13;7.17;;;;;;;-2.11;63.76;99654.41;5026713;28;20056;-76
2022/02/25 03:52:25;;;;;;;15.73;6.43;;;;;;;-1.92;63.52;99679.69;5047697;28;20068;-76
2022/02/25 03:54:51;;;;;;;17.67;6.87;;;;;;;-1.98;63.93;99680.44;5057338;28;20045;-75
2022/02/25 03:57:17;;;;;;;14.53;6.73;;;;;;;-2.02;64.08;99688.88;5039966;28;20148;-76
2022/02/25 03:59:44;;;;;;;13.07;6.40;;;;;;;-2.04;64.21;99685.56;5038659;28;20139;-76
2022/02/25 04:02:10;;;;;;;15.07;7.03;;;;;;;-2.10;64.57;99685.53;5049548;28;20135;-76
2022/02/25 04:04:36;;;;;;;14.80;6.97;;;;;;;-2.12;64.56;99687.56;5048257;28;20577;-75
2022/02/25 04:07:03;;;;;;;13.93;6.30;;;;;;;-2.05;64.42;99685.75;5048320;28;20456;-76
2022/02/25 04:09:30;;;;;;;16.10;7.00;;;;;;;-2.00;64.40;99691.38;5050178;28;20033;-75
2022/02/25 04:11:56;;;;;;;21.40;6.80;;;;;;;-2.06;64.56;99676.06;5060684;28;20475;-75
2022/02/25 04:14:22;;;;;;;14.57;6.53;;;;;;;-2.12;64.70;99683.03;5045809;28;20054;-76
2022/02/25 04:16:50;;;;;;;15.00;6.83;;;;;;;-2.06;64.65;99676.91;5044859;28;20045;-76
2022/02/25 04:19:17;;;;;;;;;;;;;;;-2.07;64.55;99672.56;5048121;28;20048;-75
2022/02/25 04:21:44;;;;;;;15.38;6.43;;;;;;;-2.08;64.71;99686.16;5049998;28;19963;-76
2022/02/25 04:24:11;;;;;;;16.90;6.80;;;;;;;-2.09;64.64;99671.09;5047081;28;20136;-76
2022/02/25 04:26:37;;;;;;;16.98;7.60;;;;;;;-2.09;64.73;99679.13;5046788;28;20063;-75
2022/02/25 04:29:04;;;;;;;16.27;7.20;;;;;;;-2.17;65.18;99677.44;5064355;28;20045;-76
2022/02/25 04:31:31;;;;;;;16.63;7.57;;;;;;;-2.18;65.14;99681.13;5048967;28;20052;-76
2022/02/25 04:33:58;;;;;;;19.15;8.25;;;;;;;-2.27;65.45;99675.09;5051628;28;20198;-76
2022/02/25 04:36:24;;;;;;;24.63;8.17;;;;;;;-2.20;65.20;99684.00;5064419;28;20131;-76
2022/02/25 04:38:52;;;;;;;16.27;7.40;;;;;;;-2.16;65.20;99679.09;5047377;28;20044;-75
2022/02/25 04:41:18;;;;;;;;;;;;;;;-2.21;65.31;99679.66;5048076;28;20053;-75
2022/02/25 04:43:45;;;;;;;17.45;7.43;;;;;;;-2.21;65.27;99681.53;5043454;28;19935;-75
2022/02/25 04:46:15;;;;;;;17.37;7.97;;;;;;;-2.18;65.18;99684.66;5027582;28;20049;-74
2022/02/25 04:48:41;;;;;;;16.40;7.50;;;;;;;-2.20;65.42;99675.97;5049131;28;20045;-76
2022/02/25 04:51:07;;;;;;;16.57;8.27;;;;;;;-2.18;65.43;99678.47;5047916;28;20048;-76
2022/02/25 04:53:34;;;;;;;22.57;9.33;;;;;;;-2.18;65.41;99676.63;5044930;28;20390;-76
2022/02/25 04:56:00;;;;;;;23.60;8.77;;;;;;;-2.15;65.33;99683.41;5048860;28;20041;-75
2022/02/25 04:58:26;;;;;;;21.53;8.83;;;;;;;-2.17;65.91;99669.41;5048257;28;20568;-75
2022/02/25 05:00:52;;;;;;;18.13;8.40;;;;;;;-2.15;65.65;99684.25;5047851;28;20052;-75
2022/02/25 05:03:21;;;;;;;15.80;8.13;;;;;;;-2.25;65.77;99651.63;5027978;28;20067;-75
2022/02/25 05:05:47;;;;;;;17.30;7.75;;;;;;;-2.07;65.77;99677.94;5030759;28;20053;-75
2022/02/25 05:08:13;;;;;;;22.83;9.37;;;;;;;-1.98;65.46;99670.56;5049070;28;20095;-76
2022/02/25 05:10:39;;;;;;;20.53;8.77;;;;;;;-1.94;65.30;99679.06;5047616;28;20492;-75
2022/02/25 05:13:06;;;;;;;18.03;7.73;;;;;;;-1.94;65.54;99671.00;5048526;28;20136;-75
2022/02/25 05:21:02;;;;;;;26.47;9.40;;;;;;;-2.14;65.88;99648.41;5044872;28;20144;-75
2022/02/25 05:23:28;;;;;;;18.90;8.60;;;;;;;-1.92;65.91;99668.97;5047872;28;20486;-75
2022/02/25 05:25:54;;;;;;;23.57;8.73;;;;;;;-1.90;65.90;99670.41;5042805;28;20052;-74
2022/02/25 05:28:20;;;;;;;42.67;9.03;;;;;;;-1.89;65.97;99664.00;5034603;28;20064;-78
2022/02/25 05:30:48;;;;;;;17.30;8.80;;;;;;;-1.80;65.77;99662.00;5047416;28;20143;-77
2022/02/25 05:33:14;;;;;;;15.52;7.65;;;;;;;-1.73;65.55;99673.63;5045857;28;20059;-77
2022/02/25 05:35:40;;;;;;;16.87;8.07;;;;;;;-1.81;65.58;99643.47;5031170;28;20044;-76
2022/02/25 05:38:06;;;;;;;17.77;7.27;;;;;;;-1.74;65.70;99661.25;5043947;28;20489;-76
2022/02/25 05:40:33;;;;;;;17.50;7.90;;;;;;;-1.61;65.34;99667.72;5049166;28;20114;-76
2022/02/25 05:43:00;;;;;;;16.33;7.80;;;;;;;-1.60;65.44;99659.44;5040625;28;20050;-77
2022/02/25 05:45:27;;;;;;;19.33;8.10;;;;;;;-1.64;65.74;99649.31;5049819;28;20049;-77
2022/02/25 05:47:54;;;;;;;17.87;8.10;;;;;;;-1.61;65.24;99651.63;5044244;28;20045;-77
2022/02/25 05:50:22;;;;;;;15.75;7.68;;;;;;;-1.69;65.47;99627.63;5042495;28;20135;-77
2022/02/25 05:52:49;;;;;;;16.83;7.30;;;;;;;-1.46;65.22;99654.16;5046713;28;20053;-76
2022/02/25 05:55:17;;;;;;;16.52;7.85;;;;;;;-1.40;64.68;99660.59;5047509;28;20481;-76
2022/02/25 05:57:45;;;;;;;16.20;7.53;;;;;;;-1.50;65.16;99647.53;5067094;28;20136;-77
2022/02/25 06:00:13;;;;;;;17.05;7.28;;;;;;;-1.34;65.07;99662.44;5048653;28;20067;-76
2022/02/25 06:02:40;;;;;;;16.63;7.43;;;;;;;-1.29;64.79;99666.19;5048633;28;20045;-77
2022/02/25 06:05:08;;;;;;;14.90;8.05;;;;;;;-1.27;64.73;99655.28;5052273;28;20063;-76
2022/02/25 06:07:34;;;;;;;16.85;7.57;;;;;;;-1.23;64.73;99678.00;5051884;28;20040;-76
2022/02/25 06:10:00;;;;;;;18.23;8.37;;;;;;;-1.23;64.64;99663.75;5047501;28;20087;-75
2022/02/25 06:12:26;;;;;;;19.93;7.53;;;;;;;-1.20;64.47;99676.78;5034486;28;20057;-75
2022/02/25 06:14:52;;;;;;;17.60;7.67;;;;;;;-1.21;64.54;99657.16;5046298;28;20036;-76
2022/02/25 06:17:18;;;;;;;15.93;8.03;;;;;;;-1.15;64.56;99661.72;5043354;28;20057;-78
2022/02/25 06:19:44;;;;;;;17.17;7.40;;;;;;;-1.14;64.39;99659.84;5045421;28;20482;-76
2022/02/25 06:22:11;;;;;;;17.00;7.60;;;;;;;-1.03;64.12;99664.66;5050663;28;20120;-76
2022/02/25 06:24:37;;;;;;;17.80;8.37;;;;;;;-1.02;64.20;99657.41;5051820;28;20056;-76
2022/02/25 06:27:03;;;;;;;15.23;7.27;;;;;;;-0.97;64.13;99646.06;5050452;28;20045;-75
2022/02/25 06:29:30;;;;;;;16.80;8.50;;;;;;;-0.88;63.79;99647.53;5032187;28;20072;-77
2022/02/25 06:31:56;;;;;;;17.03;8.63;;;;;;;-0.87;63.85;99651.88;5051067;28;20040;-77
2022/02/25 06:34:22;;;;;;;20.93;8.40;;;;;;;-0.72;63.70;99659.75;5051377;28;20098;-77
2022/02/25 06:36:48;;;;;;;16.13;8.27;;;;;;;-0.67;63.29;99657.31;5033816;28;20475;-76
2022/02/25 06:39:15;;;;;;;22.57;9.00;;;;;;;-0.63;63.23;99655.00;5064931;28;20053;-77
2022/02/25 06:41:42;;;;;;;16.35;8.18;;;;;;;-0.60;63.38;99660.00;5032964;28;20048;-77
2022/02/25 06:44:08;;;;;;;20.73;7.83;;;;;;;-0.55;63.27;99654.81;5050439;28;20429;-77
2022/02/25 06:46:35;;;;;;;15.77;7.97;;;;;;;-0.51;63.18;99650.69;5049528;28;20593;-77
2022/02/25 06:49:01;;;;;;;22.17;8.43;;;;;;;-0.47;63.12;99653.81;5050271;28;20056;-77
2022/02/25 06:51:29;;;;;;;21.53;8.40;;;;;;;-0.39;62.93;99655.47;5033501;28;20182;-76
2022/02/25 06:53:56;;;;;;;18.37;8.07;;;;;;;-0.35;63.01;99652.16;5050555;28;20044;-77
2022/02/25 06:56:22;;;;;;;16.23;8.30;;;;;;;-0.28;62.87;99654.84;5050444;28;20555;-77
2022/02/25 06:58:49;;;;;;;20.27;8.93;;;;;;;-0.20;62.75;99662.69;5064973;28;20059;-77
2022/02/25 07:01:15;;;;;;;17.27;8.97;;;;;;;-0.24;62.78;99656.06;5048615;28;20041;-76
2022/02/25 07:03:41;;;;;;;18.40;8.70;;;;;;;-0.17;62.85;99656.88;5061789;28;20037;-77
2022/02/25 07:06:07;;;;;;;25.47;9.37;;;;;;;-0.10;62.61;99648.00;5048343;28;20064;-77
2022/02/25 07:08:33;;;;;;;20.20;9.13;;;;;;;-0.04;62.43;99657.91;5050660;28;20064;-77
2022/02/25 07:10:59;;;;;;;17.33;8.13;;;;;;;-0.05;62.59;99646.34;5041970;28;20048;-76
2022/02/25 07:13:26;;;;;;;22.67;9.13;;;;;;;0.02;62.50;99650.88;5050364;28;20124;-77
2022/02/25 07:15:53;;;;;;;20.40;9.50;;;;;;;0.07;62.66;99646.53;5050294;28;20131;-74
2022/02/25 07:18:19;;;;;;;17.95;8.52;;;;;;;0.13;62.51;99672.59;5048252;28;20370;-75
2022/02/25 07:20:47;;;;;;;19.13;8.63;;;;;;;0.31;62.25;99663.03;5029604;28;20049;-76
2022/02/25 07:23:13;;;;;;;17.83;9.25;;;;;;;0.35;61.96;99645.44;5037763;28;20048;-75
2022/02/25 07:25:42;;;;;;;19.13;10.53;;;;;;;0.46;61.93;99641.28;5041606;28;20056;-74
2022/02/25 07:28:08;;;;;;;19.65;9.02;;;;;;;0.47;61.71;99640.22;5049631;28;20059;-75
2022/02/25 07:30:37;;;;;;;18.67;9.27;;;;;;;0.54;61.55;99645.59;5051533;28;20084;-76
2022/02/25 07:33:03;;;;;;;20.27;9.38;;;;;;;0.53;61.68;99627.81;5049549;28;20511;-76
2022/02/25 07:35:30;;;;;;;19.55;9.35;;;;;;;0.66;61.56;99638.53;5040729;28;20074;-75
2022/02/25 07:37:57;;;;;;;20.33;10.13;;;;;;;0.70;61.49;99634.34;5050916;28;20047;-76
2022/02/25 07:40:23;;;;;;;18.25;9.13;;;;;;;0.83;61.30;99633.44;5051358;28;20051;-76
2022/02/25 07:42:50;;;;;;;25.08;9.60;;;;;;;0.88;61.24;99642.78;5060112;28;20056;-76
2022/02/25 07:45:16;;;;;;;20.05;10.05;;;;;;;0.99;61.12;99639.38;5045962;28;20051;-75
2022/02/25 07:47:43;;;;;;;26.08;9.93;;;;;;;1.13;60.91;99640.97;5042145;28;20049;-75
2022/02/25 07:50:12;;;;;;;19.42;9.88;;;;;;;1.24;60.56;99630.53;5037870;28;20045;-75
2022/02/25 07:52:38;;;;;;;19.70;9.88;;;;;;;1.34;60.28;99635.44;5013673;28;20191;-76
2022/02/25 07:55:06;;;;;;;20.67;9.70;;;;;;;1.45;59.98;99632.06;5047448;28;20531;-77
2022/02/25 07:57:33;;;;;;;25.65;10.80;;;;;;;1.61;59.97;99627.97;5046798;28;20053;-76
2022/02/25 07:59:59;;;;;;;38.17;10.15;;;;;;;1.74;59.63;99623.53;5047149;28;20048;-76
2022/02/25 08:02:26;;;;;;;18.48;8.73;;;;;;;1.81;59.37;99627.00;5048731;28;20468;-76
2022/02/25 08:04:53;;;;;;;21.10;9.80;;;;;;;1.89;59.25;99632.09;5045846;28;20098;-76
2022/02/25 08:07:19;;;;;;;19.57;9.40;;;;;;;1.94;59.09;99636.84;5049599;28;20460;-76
2022/02/25 08:09:45;;;;;;;15.68;8.70;;;;;;;1.95;58.93;99639.31;5050237;28;20118;-75
2022/02/25 08:12:11;;;;;;;19.85;9.55;;;;;;;2.04;58.91;99634.47;5047794;28;20041;-76
2022/02/25 08:14:40;;;;;;;19.55;9.10;;;;;;;2.13;58.50;99635.00;5047712;28;20056;-75
2022/02/25 08:17:06;;;;;;;21.83;9.07;;;;;;;2.17;58.53;99638.91;5049213;28;20079;-75
2022/02/25 08:19:32;;;;;;;20.50;8.90;;;;;;;2.20;58.39;99634.94;5044779;28;20037;-76
2022/02/25 08:21:59;;;;;;;15.82;8.25;;;;;;;2.29;58.29;99636.28;5044772;28;20505;-76
2022/02/25 08:24:25;;;;;;;18.35;8.40;;;;;;;2.38;58.35;99618.75;5034913;28;20076;-76
2022/02/25 08:26:51;;;;;;;17.20;8.90;;;;;;;2.45;57.89;99636.72;5058412;28;20497;-76
2022/02/25 08:29:18;;;;;;;16.75;8.95;;;;;;;2.52;57.80;99621.31;5049969;28;20051;-75
2022/02/25 08:31:45;;;;;;;17.77;8.70;;;;;;;2.64;57.88;99624.06;5045116;28;20055;-75
2022/02/25 08:34:11;;;;;;;20.05;9.52;;;;;;;2.77;57.53;99620.34;5048155;28;20037;-75
2022/02/25 08:36:37;;;;;;;24.67;9.02;;;;;;;2.92;57.29;99630.78;5058891;28;20063;-74
2022/02/25 08:39:05;;;;;;;19.42;8.27;;;;;;;3.00;56.63;99616.13;5048410;28;20045;-75
2022/02/25 08:41:30;;;;;;;;;;;;;;;3.07;56.28;99630.34;5049681;28;20049;-74
2022/02/25 08:43:57;;;;;;;18.15;8.43;;;;;;;3.03;56.20;99602.97;5049746;28;19931;-75
2022/02/25 08:46:23;;;;;;;15.95;8.18;;;;;;;3.19;55.76;99628.53;5049790;28;20052;-73
2022/02/25 08:48:49;;;;;;;16.85;8.80;;;;;;;3.25;55.47;99618.66;5046969;28;20067;-75
2022/02/25 08:51:15;;;;;;;16.45;8.90;;;;;;;3.37;55.07;99621.41;5047935;28;20142;-74
2022/02/25 08:53:42;;;;;;;15.98;7.88;;;;;;;3.52;54.51;99613.66;5048381;28;20049;-75
2022/02/25 08:56:10;;;;;;;17.05;8.48;;;;;;;3.67;54.11;99607.00;5042756;28;20498;-76
2022/02/25 08:58:36;;;;;;;17.00;7.40;;;;;;;3.75;53.63;99603.13;5044141;28;20045;-77
2022/02/25 09:01:03;;;;;;;15.07;8.50;;;;;;;3.72;53.05;99596.28;5042293;28;20132;-76
2022/02/25 09:03:29;;;;;;;15.27;8.25;;;;;;;3.74;52.89;99587.94;5047186;28;20132;-76
2022/02/25 09:05:55;;;;;;;15.80;8.13;;;;;;;3.81;52.53;99584.06;5030341;28;20064;-76
2022/02/25 09:08:21;;;;;;;26.17;7.60;;;;;;;3.92;51.97;99595.94;5043236;28;20508;-76
2022/02/25 09:10:49;;;;;;;12.48;6.40;;;;;;;4.01;51.54;99569.34;5046161;28;20084;-75
2022/02/25 09:13:16;;;;;;;14.27;7.68;;;;;;;4.18;51.54;99587.56;5047612;28;20091;-76
2022/02/25 09:15:42;;;;;;;21.13;8.13;;;;;;;4.23;51.16;99579.56;5049235;28;20053;-75
2022/02/25 09:18:10;;;;;;;15.65;7.38;;;;;;;4.35;50.91;99568.72;5050408;28;20501;-76
2022/02/25 09:20:37;;;;;;;17.48;8.30;;;;;;;4.56;50.70;99561.00;5039242;28;20045;-76
2022/02/25 09:23:04;;;;;;;16.98;7.63;;;;;;;4.57;50.11;99568.88;5049100;28;20357;-76
2022/02/25 09:25:30;;;;;;;14.10;6.95;;;;;;;4.62;49.66;99558.16;5037018;28;20578;-77
2022/02/25 09:27:59;;;;;;;14.98;7.45;;;;;;;4.77;49.42;99562.22;5050018;28;20045;-76
2022/02/25 09:30:27;;;;;;;13.50;7.13;;;;;;;4.85;49.10;99569.97;5052656;28;20080;-75
2022/02/25 09:32:53;;;;;;;;;;;;;;;4.96;48.47;99547.38;5054104;28;20052;-76
2022/02/25 09:35:19;;;;;;;20.20;7.72;;;;;;;5.09;47.94;99559.81;5052861;28;19924;-77
2022/02/25 09:37:47;;;;;;;14.35;6.68;;;;;;;5.31;47.43;99539.31;5043195;28;20050;-76
2022/02/25 09:40:15;;;;;;;21.35;7.50;;;;;;;5.79;47.24;99537.88;5040703;28;20472;-76
2022/02/25 09:42:42;;;;;;;18.83;7.97;;;;;;;6.24;46.28;99530.63;5042944;28;20037;-72
2022/02/25 09:45:11;;;;;;;19.98;8.55;;;;;;;6.61;45.44;99542.72;5048269;28;20086;-75
2022/02/25 09:47:39;;;;;;;17.65;8.50;;;;;;;6.88;44.42;99531.06;5047882;28;20068;-76
2022/02/25 09:50:08;;;;;;;17.05;8.63;;;;;;;7.10;43.98;99524.72;5050541;28;20476;-75
2022/02/25 09:52:37;;;;;;;14.50;7.63;;;;;;;7.31;43.34;99519.44;5050181;28;20052;-76
2022/02/25 09:55:07;;;;;;;18.27;7.80;;;;;;;7.52;43.18;99509.53;5046876;28;20134;-76
2022/02/25 09:57:34;;;;;;;17.77;7.20;;;;;;;7.87;42.70;99519.00;5034161;28;20055;-76
2022/02/25 10:00:00;;;;;;;15.80;7.07;;;;;;;8.08;41.97;99525.38;5048729;28;20068;-76
2022/02/25 10:02:39;;;;;;;19.73;7.45;;;;;;;8.25;41.37;99510.75;5048663;28;20052;-76
2022/02/25 10:05:10;;;;;;;16.23;7.82;;;;;;;8.21;41.51;99515.09;5045039;28;20539;-76
2022/02/25 10:07:37;;;;;;;17.42;7.88;;;;;;;8.14;40.97;99511.81;5043288;28;20064;-75
2022/02/25 10:10:06;;;;;;;19.65;7.80;;;;;;;8.22;40.96;99511.28;5065672;28;20488;-76
2022/02/25 10:12:32;;;;;;;18.02;7.70;;;;;;;8.42;40.35;99513.25;5048041;28;20488;-77
2022/02/25 10:14:59;;;;;;;13.45;6.57;;;;;;;8.56;39.57;99510.88;5036296;28;20041;-76
2022/02/25 10:17:27;;;;;;;12.73;7.22;;;;;;;8.95;39.12;99506.84;5048548;28;20421;-76
2022/02/25 10:19:58;;;;;;;13.80;6.88;;;;;;;8.98;38.56;99508.22;5042670;28;20068;-76
2022/02/25 10:22:26;;;;;;;13.70;6.82;;;;;;;8.99;38.35;99507.13;5041206;28;20049;-76
2022/02/25 10:24:55;;;;;;;16.90;6.65;;;;;;;9.25;38.16;99513.41;5045105;28;20149;-77
2022/02/25 10:27:24;;;;;;;16.88;7.13;;;;;;;9.40;37.91;99479.88;5040776;28;20048;-76
2022/02/25 10:29:59;;;;;;;18.58;7.18;;;;;;;9.60;37.15;99503.59;5045303;28;20053;-76
2022/02/25 10:32:32;;;;;;;16.75;6.72;;;;;;;9.83;36.91;99492.31;5042778;28;20571;-76
2022/02/25 10:35:00;;;;;;;16.25;7.15;;;;;;;9.89;36.91;99485.75;5051004;28;20144;-75
2022/02/25 10:37:27;;;;;;;16.60;6.90;;;;;;;9.90;36.95;99480.00;5048569;28;20571;-76
2022/02/25 10:39:53;;;;;;;22.02;6.68;;;;;;;9.97;36.90;99485.19;5046728;28;20037;-76
2022/02/25 10:42:23;;;;;;;18.17;7.90;;;;;;;9.94;35.76;99483.00;5051640;28;20037;-75
2022/02/25 10:44:53;;;;;;;12.88;6.70;;;;;;;10.17;35.56;99480.75;5049192;28;20045;-76
2022/02/25 10:47:22;;;;;;;14.25;6.78;;;;;;;10.58;34.90;99464.16;5050420;28;20058;-73
2022/02/25 10:49:58;;;;;;;13.68;6.82;;;;;;;10.92;34.65;99457.88;5049442;28;20421;-75
2022/02/25 10:52:30;;;;;;;13.73;6.88;;;;;;;11.32;34.04;99452.38;5064498;28;20243;-73
2022/02/25 10:54:58;;;;;;;14.10;7.45;;;;;;;11.64;33.36;99447.41;5038877;28;20576;-73
2022/02/25 10:57:26;;;;;;;15.68;6.70;;;;;;;11.80;32.94;99442.56;5047451;28;20103;-74
2022/02/25 10:59:53;;;;;;;14.57;7.20;;;;;;;11.98;32.61;99451.94;5040280;28;20363;-73
2022/02/25 11:02:26;;;;;;;16.30;7.53;;;;;;;12.05;32.57;99466.13;5047162;28;20099;-75
2022/02/25 11:05:01;;;;;;;16.73;7.93;;;;;;;12.15;31.58;99448.75;5045040;28;20045;-73
2022/02/25 11:07:30;;;;;;;15.63;8.30;;;;;;;12.17;31.90;99415.53;5050196;28;20037;-73
2022/02/25 11:09:57;;;;;;;15.35;8.20;;;;;;;12.34;31.99;99435.06;5038098;28;20049;-74
2022/02/25 11:12:25;;;;;;;16.05;7.55;;;;;;;12.30;31.59;99441.44;5045443;28;20048;-73
2022/02/25 11:14:53;;;;;;;18.48;7.45;;;;;;;12.03;32.22;99448.34;5050652;28;20049;-74
2022/02/25 11:17:20;;;;;;;14.38;7.50;;;;;;;11.66;32.88;99436.16;5049486;28;20504;-75
2022/02/25 11:19:47;;;;;;;15.98;7.50;;;;;;;10.96;33.59;99428.06;5050741;28;20062;-74
2022/02/25 11:22:14;;;;;;;14.48;7.13;;;;;;;10.92;33.75;99419.59;5046321;28;20051;-74
2022/02/25 11:24:42;;;;;;;15.82;7.68;;;;;;;10.95;33.49;99418.22;5043766;28;20045;-74
2022/02/25 11:27:08;;;;;;;;;;;;;;;10.93;33.56;99414.97;5039976;28;20131;-74
2022/02/25 11:29:40;;;;;;;16.48;7.65;;;;;;;10.63;33.91;99431.31;5071668;28;20027;-75
2022/02/25 11:32:10;;;;;;;20.17;7.38;;;;;;;10.65;34.16;99425.56;5061783;28;20049;-76